sensor_id;sensor_type;location;lat;lon;timestamp;P1;durP1;ratioP1;P2;durP2;ratioP2
42978;SDS011;28616;44.746;19.678;2023-08-17T00:00:24;38.50;;;26.27;;
42978;SDS011;28616;44.746;19.678;2023-08-17T00:02:50;38.05;;;25.58;;
42978;SDS011;28616;44.746;19.678;2023-08-17T00:05:15;40.75;;;24.70;;
42978;SDS011;28616;44.746;19.678;2023-08-17T00:07:41;43.55;;;26.90;;
42978;SDS011;28616;44.746;19.678;2023-08-17T00:10:07;38.97;;;25.67;;
42978;SDS011;28616;44.746;19.678;2023-08-17T00:12:33;38.95;;;25.65;;
42978;SDS011;28616;44.746;19.678;2023-08-17T00:14:59;35.78;;;25.02;;
42978;SDS011;28616;44.746;19.678;2023-08-17T00:17:24;38.83;;;26.08;;
42978;SDS011;28616;44.746;19.678;2023-08-17T00:19:50;40.63;;;26.75;;
42978;SDS011;28616;44.746;19.678;2023-08-17T00:22:16;40.17;;;25.88;;
42978;SDS011;28616;44.746;19.678;2023-08-17T00:24:42;36.95;;;25.45;;
42978;SDS011;28616;44.746;19.678;2023-08-17T00:27:10;36.53;;;25.95;;
42978;SDS011;28616;44.746;19.678;2023-08-17T00:29:36;38.53;;;25.92;;
42978;SDS011;28616;44.746;19.678;2023-08-17T00:32:02;39.78;;;26.52;;
42978;SDS011;28616;44.746;19.678;2023-08-17T00:34:28;39.63;;;25.42;;
42978;SDS011;28616;44.746;19.678;2023-08-17T00:36:54;36.15;;;25.33;;
42978;SDS011;28616;44.746;19.678;2023-08-17T00:39:20;39.00;;;25.15;;
42978;SDS011;28616;44.746;19.678;2023-08-17T00:41:46;38.15;;;25.70;;
42978;SDS011;28616;44.746;19.678;2023-08-17T00:44:11;36.08;;;25.17;;
42978;SDS011;28616;44.746;19.678;2023-08-17T00:46:37;36.90;;;24.67;;
42978;SDS011;28616;44.746;19.678;2023-08-17T00:49:04;39.92;;;25.83;;
42978;SDS011;28616;44.746;19.678;2023-08-17T00:51:31;36.28;;;25.45;;
42978;SDS011;28616;44.746;19.678;2023-08-17T00:53:58;37.78;;;25.80;;
42978;SDS011;28616;44.746;19.678;2023-08-17T00:56:26;38.08;;;26.00;;
42978;SDS011;28616;44.746;19.678;2023-08-17T00:58:52;37.35;;;25.45;;
42978;SDS011;28616;44.746;19.678;2023-08-17T01:01:19;41.88;;;24.98;;
42978;SDS011;28616;44.746;19.678;2023-08-17T01:03:45;36.92;;;24.85;;
42978;SDS011;28616;44.746;19.678;2023-08-17T01:06:11;36.30;;;24.05;;
42978;SDS011;28616;44.746;19.678;2023-08-17T01:08:37;37.97;;;25.40;;
42978;SDS011;28616;44.746;19.678;2023-08-17T01:16:43;39.63;;;26.80;;
42978;SDS011;28616;44.746;19.678;2023-08-17T01:19:17;36.20;;;24.83;;
42978;SDS011;28616;44.746;19.678;2023-08-17T01:21:51;38.40;;;23.90;;
42978;SDS011;28616;44.746;19.678;2023-08-17T01:24:33;33.85;;;23.75;;
42978;SDS011;28616;44.746;19.678;2023-08-17T01:26:59;33.03;;;23.00;;
42978;SDS011;28616;44.746;19.678;2023-08-17T01:29:25;37.55;;;24.73;;
42978;SDS011;28616;44.746;19.678;2023-08-17T01:34:29;33.20;;;22.88;;
42978;SDS011;28616;44.746;19.678;2023-08-17T01:37:00;35.92;;;23.83;;
42978;SDS011;28616;44.746;19.678;2023-08-17T01:39:27;33.63;;;23.58;;
42978;SDS011;28616;44.746;19.678;2023-08-17T01:42:00;34.17;;;24.10;;
42978;SDS011;28616;44.746;19.678;2023-08-17T01:44:26;35.60;;;23.80;;
42978;SDS011;28616;44.746;19.678;2023-08-17T01:46:52;31.30;;;22.05;;
42978;SDS011;28616;44.746;19.678;2023-08-17T01:49:18;31.25;;;21.75;;
42978;SDS011;28616;44.746;19.678;2023-08-17T01:51:44;32.17;;;23.08;;
42978;SDS011;28616;44.746;19.678;2023-08-17T01:54:10;38.67;;;23.70;;
42978;SDS011;28616;44.746;19.678;2023-08-17T01:56:36;31.58;;;23.50;;
42978;SDS011;28616;44.746;19.678;2023-08-17T01:59:01;32.50;;;23.85;;
42978;SDS011;28616;44.746;19.678;2023-08-17T02:01:27;33.30;;;23.75;;
42978;SDS011;28616;44.746;19.678;2023-08-17T02:03:53;36.83;;;22.55;;
42978;SDS011;28616;44.746;19.678;2023-08-17T02:06:19;34.17;;;23.70;;
42978;SDS011;28616;44.746;19.678;2023-08-17T02:08:45;30.80;;;22.08;;
42978;SDS011;28616;44.746;19.678;2023-08-17T02:11:11;34.70;;;23.02;;
42978;SDS011;28616;44.746;19.678;2023-08-17T02:13:36;31.05;;;22.42;;
42978;SDS011;28616;44.746;19.678;2023-08-17T02:16:03;31.98;;;22.05;;
42978;SDS011;28616;44.746;19.678;2023-08-17T02:18:30;29.80;;;20.70;;
42978;SDS011;28616;44.746;19.678;2023-08-17T02:20:58;34.17;;;21.73;;
42978;SDS011;28616;44.746;19.678;2023-08-17T02:23:24;33.85;;;21.25;;
42978;SDS011;28616;44.746;19.678;2023-08-17T02:25:50;32.33;;;20.27;;
42978;SDS011;28616;44.746;19.678;2023-08-17T02:30:57;31.38;;;21.02;;
42978;SDS011;28616;44.746;19.678;2023-08-17T02:33:23;31.05;;;21.23;;
42978;SDS011;28616;44.746;19.678;2023-08-17T02:35:49;33.30;;;21.40;;
42978;SDS011;28616;44.746;19.678;2023-08-17T02:38:15;30.35;;;20.88;;
42978;SDS011;28616;44.746;19.678;2023-08-17T02:40:41;33.55;;;21.73;;
42978;SDS011;28616;44.746;19.678;2023-08-17T02:43:07;33.60;;;23.13;;
42978;SDS011;28616;44.746;19.678;2023-08-17T02:45:33;33.03;;;22.85;;
42978;SDS011;28616;44.746;19.678;2023-08-17T02:47:59;33.20;;;21.65;;
42978;SDS011;28616;44.746;19.678;2023-08-17T02:50:25;29.92;;;21.65;;
42978;SDS011;28616;44.746;19.678;2023-08-17T02:52:51;31.23;;;21.13;;
42978;SDS011;28616;44.746;19.678;2023-08-17T02:55:16;35.45;;;23.40;;
42978;SDS011;28616;44.746;19.678;2023-08-17T02:57:42;35.28;;;22.67;;
42978;SDS011;28616;44.746;19.678;2023-08-17T03:00:08;34.95;;;22.35;;
42978;SDS011;28616;44.746;19.678;2023-08-17T03:02:34;33.53;;;22.23;;
42978;SDS011;28616;44.746;19.678;2023-08-17T03:05:00;30.08;;;21.05;;
42978;SDS011;28616;44.746;19.678;2023-08-17T03:07:25;35.25;;;22.48;;
42978;SDS011;28616;44.746;19.678;2023-08-17T03:09:51;35.78;;;22.58;;
42978;SDS011;28616;44.746;19.678;2023-08-17T03:12:17;37.25;;;22.20;;
42978;SDS011;28616;44.746;19.678;2023-08-17T03:14:42;30.42;;;21.35;;
42978;SDS011;28616;44.746;19.678;2023-08-17T03:17:08;33.42;;;21.58;;
42978;SDS011;28616;44.746;19.678;2023-08-17T03:19:34;32.33;;;21.80;;
42978;SDS011;28616;44.746;19.678;2023-08-17T03:22:00;34.90;;;22.25;;
42978;SDS011;28616;44.746;19.678;2023-08-17T03:24:25;36.28;;;22.05;;
42978;SDS011;28616;44.746;19.678;2023-08-17T03:26:51;36.78;;;22.08;;
42978;SDS011;28616;44.746;19.678;2023-08-17T03:29:17;33.38;;;22.73;;
42978;SDS011;28616;44.746;19.678;2023-08-17T03:31:43;42.90;;;23.95;;
42978;SDS011;28616;44.746;19.678;2023-08-17T03:34:08;39.85;;;23.23;;
42978;SDS011;28616;44.746;19.678;2023-08-17T03:36:34;37.38;;;21.75;;
42978;SDS011;28616;44.746;19.678;2023-08-17T03:39:00;35.72;;;21.80;;
42978;SDS011;28616;44.746;19.678;2023-08-17T03:41:25;32.38;;;23.30;;
42978;SDS011;28616;44.746;19.678;2023-08-17T03:43:51;32.63;;;20.98;;
42978;SDS011;28616;44.746;19.678;2023-08-17T03:46:17;32.72;;;21.60;;
42978;SDS011;28616;44.746;19.678;2023-08-17T03:48:43;36.42;;;23.00;;
42978;SDS011;28616;44.746;19.678;2023-08-17T03:51:08;35.55;;;23.42;;
42978;SDS011;28616;44.746;19.678;2023-08-17T03:53:34;38.58;;;23.92;;
42978;SDS011;28616;44.746;19.678;2023-08-17T03:56:00;37.22;;;23.15;;
42978;SDS011;28616;44.746;19.678;2023-08-17T03:58:26;39.38;;;23.80;;
42978;SDS011;28616;44.746;19.678;2023-08-17T04:00:58;34.17;;;23.02;;
42978;SDS011;28616;44.746;19.678;2023-08-17T04:03:24;35.53;;;22.33;;
42978;SDS011;28616;44.746;19.678;2023-08-17T04:05:49;37.72;;;24.15;;
42978;SDS011;28616;44.746;19.678;2023-08-17T04:08:15;39.55;;;23.35;;
42978;SDS011;28616;44.746;19.678;2023-08-17T04:10:41;39.47;;;25.00;;
42978;SDS011;28616;44.746;19.678;2023-08-17T04:13:07;46.67;;;26.80;;
42978;SDS011;28616;44.746;19.678;2023-08-17T04:15:32;45.75;;;25.17;;
42978;SDS011;28616;44.746;19.678;2023-08-17T04:17:58;45.80;;;25.45;;
42978;SDS011;28616;44.746;19.678;2023-08-17T04:20:24;45.67;;;26.92;;
42978;SDS011;28616;44.746;19.678;2023-08-17T04:22:50;42.10;;;26.63;;
42978;SDS011;28616;44.746;19.678;2023-08-17T04:25:16;45.88;;;27.40;;
42978;SDS011;28616;44.746;19.678;2023-08-17T04:27:42;53.00;;;28.95;;
42978;SDS011;28616;44.746;19.678;2023-08-17T04:30:08;44.53;;;27.70;;
42978;SDS011;28616;44.746;19.678;2023-08-17T04:32:35;48.65;;;28.20;;
42978;SDS011;28616;44.746;19.678;2023-08-17T04:35:00;49.20;;;28.88;;
42978;SDS011;28616;44.746;19.678;2023-08-17T04:37:26;43.35;;;28.55;;
42978;SDS011;28616;44.746;19.678;2023-08-17T04:39:52;39.38;;;25.90;;
42978;SDS011;28616;44.746;19.678;2023-08-17T04:42:18;42.80;;;26.25;;
42978;SDS011;28616;44.746;19.678;2023-08-17T04:44:45;51.85;;;26.85;;
42978;SDS011;28616;44.746;19.678;2023-08-17T04:47:11;40.53;;;24.08;;
42978;SDS011;28616;44.746;19.678;2023-08-17T04:49:37;41.85;;;25.27;;
42978;SDS011;28616;44.746;19.678;2023-08-17T04:52:03;38.53;;;25.95;;
42978;SDS011;28616;44.746;19.678;2023-08-17T04:54:29;39.97;;;25.40;;
42978;SDS011;28616;44.746;19.678;2023-08-17T04:56:55;37.78;;;24.38;;
42978;SDS011;28616;44.746;19.678;2023-08-17T04:59:21;41.72;;;24.85;;
42978;SDS011;28616;44.746;19.678;2023-08-17T05:01:46;38.90;;;25.20;;
42978;SDS011;28616;44.746;19.678;2023-08-17T05:04:12;45.08;;;25.20;;
42978;SDS011;28616;44.746;19.678;2023-08-17T05:06:38;38.75;;;25.17;;
42978;SDS011;28616;44.746;19.678;2023-08-17T05:09:04;43.05;;;24.90;;
42978;SDS011;28616;44.746;19.678;2023-08-17T05:11:30;36.97;;;25.75;;
42978;SDS011;28616;44.746;19.678;2023-08-17T05:13:56;42.30;;;25.23;;
42978;SDS011;28616;44.746;19.678;2023-08-17T05:16:22;45.58;;;25.60;;
42978;SDS011;28616;44.746;19.678;2023-08-17T05:18:48;41.58;;;26.70;;
42978;SDS011;28616;44.746;19.678;2023-08-17T05:21:14;45.08;;;27.92;;
42978;SDS011;28616;44.746;19.678;2023-08-17T05:23:39;43.35;;;26.15;;
42978;SDS011;28616;44.746;19.678;2023-08-17T05:26:05;45.88;;;26.10;;
42978;SDS011;28616;44.746;19.678;2023-08-17T05:28:31;41.83;;;25.92;;
42978;SDS011;28616;44.746;19.678;2023-08-17T05:31:02;41.08;;;24.85;;
42978;SDS011;28616;44.746;19.678;2023-08-17T05:33:31;46.72;;;26.15;;
42978;SDS011;28616;44.746;19.678;2023-08-17T05:35:57;41.78;;;26.33;;
42978;SDS011;28616;44.746;19.678;2023-08-17T05:38:23;44.92;;;26.13;;
42978;SDS011;28616;44.746;19.678;2023-08-17T05:40:54;48.90;;;25.65;;
42978;SDS011;28616;44.746;19.678;2023-08-17T05:43:21;39.63;;;25.70;;
42978;SDS011;28616;44.746;19.678;2023-08-17T05:45:47;44.53;;;25.52;;
42978;SDS011;28616;44.746;19.678;2023-08-17T05:48:13;46.13;;;26.45;;
42978;SDS011;28616;44.746;19.678;2023-08-17T05:50:41;48.03;;;26.25;;
42978;SDS011;28616;44.746;19.678;2023-08-17T05:53:08;39.42;;;26.08;;
42978;SDS011;28616;44.746;19.678;2023-08-17T05:55:33;44.17;;;25.48;;
42978;SDS011;28616;44.746;19.678;2023-08-17T05:57:59;36.40;;;24.48;;
42978;SDS011;28616;44.746;19.678;2023-08-17T06:00:25;41.35;;;24.25;;
42978;SDS011;28616;44.746;19.678;2023-08-17T06:02:51;38.40;;;24.58;;
42978;SDS011;28616;44.746;19.678;2023-08-17T06:05:17;37.75;;;25.35;;
42978;SDS011;28616;44.746;19.678;2023-08-17T06:07:43;41.30;;;25.40;;
42978;SDS011;28616;44.746;19.678;2023-08-17T06:10:09;37.25;;;24.08;;
42978;SDS011;28616;44.746;19.678;2023-08-17T06:12:36;36.10;;;22.92;;
42978;SDS011;28616;44.746;19.678;2023-08-17T06:15:02;35.20;;;22.80;;
42978;SDS011;28616;44.746;19.678;2023-08-17T06:17:31;35.47;;;23.50;;
42978;SDS011;28616;44.746;19.678;2023-08-17T06:19:58;35.58;;;23.35;;
42978;SDS011;28616;44.746;19.678;2023-08-17T06:22:24;32.83;;;20.90;;
42978;SDS011;28616;44.746;19.678;2023-08-17T06:24:50;34.58;;;20.90;;
42978;SDS011;28616;44.746;19.678;2023-08-17T06:27:16;30.50;;;21.15;;
42978;SDS011;28616;44.746;19.678;2023-08-17T06:29:42;36.67;;;20.63;;
42978;SDS011;28616;44.746;19.678;2023-08-17T06:32:09;31.92;;;20.10;;
42978;SDS011;28616;44.746;19.678;2023-08-17T06:34:35;30.90;;;19.92;;
42978;SDS011;28616;44.746;19.678;2023-08-17T06:37:02;28.95;;;19.20;;
42978;SDS011;28616;44.746;19.678;2023-08-17T06:39:29;30.92;;;18.10;;
42978;SDS011;28616;44.746;19.678;2023-08-17T06:41:55;29.23;;;17.80;;
42978;SDS011;28616;44.746;19.678;2023-08-17T06:44:21;26.90;;;17.77;;
42978;SDS011;28616;44.746;19.678;2023-08-17T06:46:47;21.92;;;15.18;;
42978;SDS011;28616;44.746;19.678;2023-08-17T06:49:13;17.73;;;12.32;;
42978;SDS011;28616;44.746;19.678;2023-08-17T06:51:39;20.35;;;12.55;;
42978;SDS011;28616;44.746;19.678;2023-08-17T06:54:07;19.17;;;12.75;;
42978;SDS011;28616;44.746;19.678;2023-08-17T06:56:34;19.30;;;12.45;;
42978;SDS011;28616;44.746;19.678;2023-08-17T06:59:00;18.90;;;11.95;;
42978;SDS011;28616;44.746;19.678;2023-08-17T07:01:28;18.42;;;11.48;;
42978;SDS011;28616;44.746;19.678;2023-08-17T07:03:54;18.73;;;12.68;;
42978;SDS011;28616;44.746;19.678;2023-08-17T07:06:20;17.63;;;12.57;;
42978;SDS011;28616;44.746;19.678;2023-08-17T07:08:47;17.40;;;11.93;;
42978;SDS011;28616;44.746;19.678;2023-08-17T07:11:13;22.15;;;11.93;;
42978;SDS011;28616;44.746;19.678;2023-08-17T07:13:39;18.30;;;12.27;;
42978;SDS011;28616;44.746;19.678;2023-08-17T07:16:05;16.70;;;12.25;;
42978;SDS011;28616;44.746;19.678;2023-08-17T07:18:31;19.08;;;13.50;;
42978;SDS011;28616;44.746;19.678;2023-08-17T07:20:57;19.67;;;12.68;;
42978;SDS011;28616;44.746;19.678;2023-08-17T07:23:23;19.73;;;12.27;;
42978;SDS011;28616;44.746;19.678;2023-08-17T07:25:49;22.33;;;12.38;;
42978;SDS011;28616;44.746;19.678;2023-08-17T07:28:16;17.25;;;12.02;;
42978;SDS011;28616;44.746;19.678;2023-08-17T07:30:42;21.80;;;12.52;;
42978;SDS011;28616;44.746;19.678;2023-08-17T07:33:08;15.85;;;11.23;;
42978;SDS011;28616;44.746;19.678;2023-08-17T07:35:34;16.52;;;10.27;;
42978;SDS011;28616;44.746;19.678;2023-08-17T07:38:00;21.77;;;11.60;;
42978;SDS011;28616;44.746;19.678;2023-08-17T07:40:26;17.70;;;11.07;;
42978;SDS011;28616;44.746;19.678;2023-08-17T07:42:52;21.33;;;11.77;;
42978;SDS011;28616;44.746;19.678;2023-08-17T07:45:19;20.02;;;12.70;;
42978;SDS011;28616;44.746;19.678;2023-08-17T07:47:45;18.45;;;11.73;;
42978;SDS011;28616;44.746;19.678;2023-08-17T07:50:11;19.52;;;13.50;;
42978;SDS011;28616;44.746;19.678;2023-08-17T07:52:37;17.58;;;11.70;;
42978;SDS011;28616;44.746;19.678;2023-08-17T07:55:03;18.40;;;12.77;;
42978;SDS011;28616;44.746;19.678;2023-08-17T08:00:01;20.77;;;14.50;;
42978;SDS011;28616;44.746;19.678;2023-08-17T08:02:27;29.95;;;15.27;;
42978;SDS011;28616;44.746;19.678;2023-08-17T08:04:53;26.30;;;16.30;;
42978;SDS011;28616;44.746;19.678;2023-08-17T08:07:22;21.33;;;15.15;;
42978;SDS011;28616;44.746;19.678;2023-08-17T08:09:48;23.13;;;16.25;;
42978;SDS011;28616;44.746;19.678;2023-08-17T08:12:15;28.23;;;16.02;;
42978;SDS011;28616;44.746;19.678;2023-08-17T08:15:07;22.45;;;16.08;;
42978;SDS011;28616;44.746;19.678;2023-08-17T08:17:34;30.75;;;15.90;;
42978;SDS011;28616;44.746;19.678;2023-08-17T08:20:00;25.73;;;15.70;;
42978;SDS011;28616;44.746;19.678;2023-08-17T08:22:26;26.55;;;15.18;;
42978;SDS011;28616;44.746;19.678;2023-08-17T08:24:53;22.02;;;16.25;;
42978;SDS011;28616;44.746;19.678;2023-08-17T08:27:19;23.10;;;16.58;;
42978;SDS011;28616;44.746;19.678;2023-08-17T08:29:45;28.90;;;15.82;;
42978;SDS011;28616;44.746;19.678;2023-08-17T08:32:11;25.48;;;15.23;;
42978;SDS011;28616;44.746;19.678;2023-08-17T08:34:37;23.90;;;15.52;;
42978;SDS011;28616;44.746;19.678;2023-08-17T08:37:03;21.23;;;15.07;;
42978;SDS011;28616;44.746;19.678;2023-08-17T08:39:30;19.25;;;14.48;;
42978;SDS011;28616;44.746;19.678;2023-08-17T08:41:56;24.30;;;15.70;;
42978;SDS011;28616;44.746;19.678;2023-08-17T08:44:22;23.27;;;14.82;;
42978;SDS011;28616;44.746;19.678;2023-08-17T08:46:48;22.00;;;13.70;;
42978;SDS011;28616;44.746;19.678;2023-08-17T08:49:17;18.88;;;13.13;;
42978;SDS011;28616;44.746;19.678;2023-08-17T08:51:46;24.00;;;14.63;;
42978;SDS011;28616;44.746;19.678;2023-08-17T08:54:14;18.40;;;13.20;;
42978;SDS011;28616;44.746;19.678;2023-08-17T08:56:44;19.75;;;13.63;;
42978;SDS011;28616;44.746;19.678;2023-08-17T08:59:12;20.20;;;13.35;;
42978;SDS011;28616;44.746;19.678;2023-08-17T09:01:38;18.77;;;12.98;;
42978;SDS011;28616;44.746;19.678;2023-08-17T09:04:04;20.00;;;14.15;;
42978;SDS011;28616;44.746;19.678;2023-08-17T09:06:31;19.33;;;13.98;;
42978;SDS011;28616;44.746;19.678;2023-08-17T09:08:57;18.17;;;13.27;;
42978;SDS011;28616;44.746;19.678;2023-08-17T09:11:24;15.80;;;10.88;;
42978;SDS011;28616;44.746;19.678;2023-08-17T09:13:52;17.67;;;11.38;;
42978;SDS011;28616;44.746;19.678;2023-08-17T09:16:18;19.58;;;10.48;;
42978;SDS011;28616;44.746;19.678;2023-08-17T09:18:44;19.30;;;11.98;;
42978;SDS011;28616;44.746;19.678;2023-08-17T09:21:19;19.17;;;12.88;;
42978;SDS011;28616;44.746;19.678;2023-08-17T09:23:50;17.80;;;11.60;;
42978;SDS011;28616;44.746;19.678;2023-08-17T09:26:17;20.67;;;11.85;;
42978;SDS011;28616;44.746;19.678;2023-08-17T09:28:44;19.45;;;12.82;;
42978;SDS011;28616;44.746;19.678;2023-08-17T09:31:11;18.55;;;12.50;;
42978;SDS011;28616;44.746;19.678;2023-08-17T09:33:37;15.85;;;12.05;;
42978;SDS011;28616;44.746;19.678;2023-08-17T09:36:03;17.45;;;11.95;;
42978;SDS011;28616;44.746;19.678;2023-08-17T09:38:29;16.67;;;12.45;;
42978;SDS011;28616;44.746;19.678;2023-08-17T09:40:57;17.67;;;11.18;;
42978;SDS011;28616;44.746;19.678;2023-08-17T09:43:23;15.60;;;8.13;;
42978;SDS011;28616;44.746;19.678;2023-08-17T09:45:53;9.57;;;6.35;;
42978;SDS011;28616;44.746;19.678;2023-08-17T09:48:20;11.30;;;7.13;;
42978;SDS011;28616;44.746;19.678;2023-08-17T09:50:46;11.50;;;7.38;;
42978;SDS011;28616;44.746;19.678;2023-08-17T09:53:13;11.43;;;7.82;;
42978;SDS011;28616;44.746;19.678;2023-08-17T09:55:43;11.50;;;6.40;;
42978;SDS011;28616;44.746;19.678;2023-08-17T09:58:10;11.90;;;7.70;;
42978;SDS011;28616;44.746;19.678;2023-08-17T10:00:42;11.80;;;6.47;;
42978;SDS011;28616;44.746;19.678;2023-08-17T10:03:09;8.68;;;6.45;;
42978;SDS011;28616;44.746;19.678;2023-08-17T10:05:37;9.18;;;6.63;;
42978;SDS011;28616;44.746;19.678;2023-08-17T10:08:04;13.10;;;7.63;;
42978;SDS011;28616;44.746;19.678;2023-08-17T10:10:32;11.52;;;7.65;;
42978;SDS011;28616;44.746;19.678;2023-08-17T10:15:47;15.10;;;8.00;;
42978;SDS011;28616;44.746;19.678;2023-08-17T10:18:25;10.57;;;8.38;;
42978;SDS011;28616;44.746;19.678;2023-08-17T10:21:02;14.48;;;8.45;;
42978;SDS011;28616;44.746;19.678;2023-08-17T10:23:29;15.95;;;10.27;;
42978;SDS011;28616;44.746;19.678;2023-08-17T10:25:57;14.25;;;9.52;;
42978;SDS011;28616;44.746;19.678;2023-08-17T10:28:23;15.05;;;9.95;;
42978;SDS011;28616;44.746;19.678;2023-08-17T10:30:50;21.25;;;9.50;;
42978;SDS011;28616;44.746;19.678;2023-08-17T10:33:16;15.15;;;9.93;;
42978;SDS011;28616;44.746;19.678;2023-08-17T10:35:43;13.30;;;9.20;;
42978;SDS011;28616;44.746;19.678;2023-08-17T10:38:10;11.27;;;8.15;;
42978;SDS011;28616;44.746;19.678;2023-08-17T10:40:37;11.38;;;7.78;;
42978;SDS011;28616;44.746;19.678;2023-08-17T10:43:03;12.93;;;8.50;;
42978;SDS011;28616;44.746;19.678;2023-08-17T10:45:33;12.55;;;9.55;;
42978;SDS011;28616;44.746;19.678;2023-08-17T10:48:00;13.40;;;8.43;;
42978;SDS011;28616;44.746;19.678;2023-08-17T10:50:26;10.55;;;8.48;;
42978;SDS011;28616;44.746;19.678;2023-08-17T10:52:53;11.57;;;7.80;;
42978;SDS011;28616;44.746;19.678;2023-08-17T10:55:36;14.75;;;7.03;;
42978;SDS011;28616;44.746;19.678;2023-08-17T10:58:02;9.98;;;7.43;;
42978;SDS011;28616;44.746;19.678;2023-08-17T11:00:36;15.40;;;7.53;;
42978;SDS011;28616;44.746;19.678;2023-08-17T11:03:06;12.82;;;7.35;;
42978;SDS011;28616;44.746;19.678;2023-08-17T11:08:00;9.25;;;6.72;;
42978;SDS011;28616;44.746;19.678;2023-08-17T11:10:27;12.52;;;7.60;;
42978;SDS011;28616;44.746;19.678;2023-08-17T11:12:57;8.40;;;6.90;;
42978;SDS011;28616;44.746;19.678;2023-08-17T11:15:37;13.88;;;9.13;;
42978;SDS011;28616;44.746;19.678;2023-08-17T11:18:04;14.85;;;8.68;;
42978;SDS011;28616;44.746;19.678;2023-08-17T11:20:30;10.85;;;8.00;;
42978;SDS011;28616;44.746;19.678;2023-08-17T11:22:57;14.20;;;8.68;;
42978;SDS011;28616;44.746;19.678;2023-08-17T11:25:25;13.75;;;8.93;;
42978;SDS011;28616;44.746;19.678;2023-08-17T11:27:52;10.85;;;8.38;;
42978;SDS011;28616;44.746;19.678;2023-08-17T11:30:18;9.70;;;7.28;;
42978;SDS011;28616;44.746;19.678;2023-08-17T11:32:45;10.13;;;6.88;;
42978;SDS011;28616;44.746;19.678;2023-08-17T11:35:12;9.15;;;6.88;;
42978;SDS011;28616;44.746;19.678;2023-08-17T11:37:38;9.45;;;5.63;;
42978;SDS011;28616;44.746;19.678;2023-08-17T11:40:04;8.18;;;6.40;;
42978;SDS011;28616;44.746;19.678;2023-08-17T11:42:30;10.05;;;6.05;;
42978;SDS011;28616;44.746;19.678;2023-08-17T11:44:56;8.90;;;6.63;;
42978;SDS011;28616;44.746;19.678;2023-08-17T11:47:22;8.38;;;5.88;;
42978;SDS011;28616;44.746;19.678;2023-08-17T11:49:49;10.90;;;5.63;;
42978;SDS011;28616;44.746;19.678;2023-08-17T11:52:15;10.07;;;5.68;;
42978;SDS011;28616;44.746;19.678;2023-08-17T11:54:41;6.95;;;5.25;;
42978;SDS011;28616;44.746;19.678;2023-08-17T11:57:07;11.50;;;6.10;;
42978;SDS011;28616;44.746;19.678;2023-08-17T11:59:33;9.35;;;5.65;;
42978;SDS011;28616;44.746;19.678;2023-08-17T12:02:00;9.35;;;5.88;;
42978;SDS011;28616;44.746;19.678;2023-08-17T12:04:26;10.10;;;5.30;;
42978;SDS011;28616;44.746;19.678;2023-08-17T12:06:53;7.68;;;5.55;;
42978;SDS011;28616;44.746;19.678;2023-08-17T12:09:20;10.55;;;5.57;;
42978;SDS011;28616;44.746;19.678;2023-08-17T12:11:47;8.40;;;5.32;;
42978;SDS011;28616;44.746;19.678;2023-08-17T12:14:13;9.95;;;5.65;;
42978;SDS011;28616;44.746;19.678;2023-08-17T12:16:46;6.57;;;4.78;;
42978;SDS011;28616;44.746;19.678;2023-08-17T12:19:13;7.53;;;5.00;;
42978;SDS011;28616;44.746;19.678;2023-08-17T12:21:42;7.45;;;5.38;;
42978;SDS011;28616;44.746;19.678;2023-08-17T12:24:09;12.52;;;5.80;;
42978;SDS011;28616;44.746;19.678;2023-08-17T12:26:47;12.15;;;6.22;;
42978;SDS011;28616;44.746;19.678;2023-08-17T12:29:13;9.43;;;5.20;;
42978;SDS011;28616;44.746;19.678;2023-08-17T12:31:39;7.43;;;5.85;;
42978;SDS011;28616;44.746;19.678;2023-08-17T12:34:05;6.72;;;5.00;;
42978;SDS011;28616;44.746;19.678;2023-08-17T12:36:32;10.43;;;5.55;;
42978;SDS011;28616;44.746;19.678;2023-08-17T12:38:58;15.18;;;5.93;;
42978;SDS011;28616;44.746;19.678;2023-08-17T12:41:24;8.82;;;5.00;;
42978;SDS011;28616;44.746;19.678;2023-08-17T12:43:50;13.32;;;5.35;;
42978;SDS011;28616;44.746;19.678;2023-08-17T12:46:19;8.05;;;5.28;;
42978;SDS011;28616;44.746;19.678;2023-08-17T12:48:45;8.02;;;5.28;;
42978;SDS011;28616;44.746;19.678;2023-08-17T12:51:11;8.30;;;5.13;;
42978;SDS011;28616;44.746;19.678;2023-08-17T12:53:37;7.72;;;5.88;;
42978;SDS011;28616;44.746;19.678;2023-08-17T12:56:03;9.98;;;6.13;;
42978;SDS011;28616;44.746;19.678;2023-08-17T12:58:30;8.07;;;6.40;;
42978;SDS011;28616;44.746;19.678;2023-08-17T13:00:56;8.65;;;5.47;;
42978;SDS011;28616;44.746;19.678;2023-08-17T13:03:22;9.98;;;4.90;;
42978;SDS011;28616;44.746;19.678;2023-08-17T13:08:19;8.93;;;5.93;;
42978;SDS011;28616;44.746;19.678;2023-08-17T13:10:45;8.13;;;6.13;;
42978;SDS011;28616;44.746;19.678;2023-08-17T13:13:13;13.38;;;7.20;;
42978;SDS011;28616;44.746;19.678;2023-08-17T13:15:39;7.15;;;5.40;;
42978;SDS011;28616;44.746;19.678;2023-08-17T13:18:07;10.57;;;6.10;;
42978;SDS011;28616;44.746;19.678;2023-08-17T13:20:33;9.52;;;6.05;;
42978;SDS011;28616;44.746;19.678;2023-08-17T13:23:00;9.10;;;6.18;;
42978;SDS011;28616;44.746;19.678;2023-08-17T13:25:26;7.03;;;5.78;;
42978;SDS011;28616;44.746;19.678;2023-08-17T13:27:53;7.07;;;5.32;;
42978;SDS011;28616;44.746;19.678;2023-08-17T13:30:19;9.50;;;5.70;;
42978;SDS011;28616;44.746;19.678;2023-08-17T13:32:45;10.90;;;6.82;;
42978;SDS011;28616;44.746;19.678;2023-08-17T13:35:11;11.45;;;6.63;;
42978;SDS011;28616;44.746;19.678;2023-08-17T13:37:37;11.27;;;6.95;;
42978;SDS011;28616;44.746;19.678;2023-08-17T13:40:03;10.48;;;7.38;;
42978;SDS011;28616;44.746;19.678;2023-08-17T13:42:30;9.07;;;7.50;;
42978;SDS011;28616;44.746;19.678;2023-08-17T13:44:56;9.95;;;7.57;;
42978;SDS011;28616;44.746;19.678;2023-08-17T13:47:22;8.40;;;7.40;;
42978;SDS011;28616;44.746;19.678;2023-08-17T13:49:48;11.32;;;7.75;;
42978;SDS011;28616;44.746;19.678;2023-08-17T13:52:14;10.18;;;6.97;;
42978;SDS011;28616;44.746;19.678;2023-08-17T13:54:40;11.68;;;6.25;;
42978;SDS011;28616;44.746;19.678;2023-08-17T13:57:06;9.63;;;6.18;;
42978;SDS011;28616;44.746;19.678;2023-08-17T14:00:45;12.27;;;6.82;;
42978;SDS011;28616;44.746;19.678;2023-08-17T14:03:11;8.95;;;7.10;;
42978;SDS011;28616;44.746;19.678;2023-08-17T14:05:37;12.43;;;7.90;;
42978;SDS011;28616;44.746;19.678;2023-08-17T14:08:04;15.52;;;8.98;;
42978;SDS011;28616;44.746;19.678;2023-08-17T14:10:31;11.60;;;9.13;;
42978;SDS011;28616;44.746;19.678;2023-08-17T14:12:58;16.60;;;8.40;;
42978;SDS011;28616;44.746;19.678;2023-08-17T14:15:24;15.55;;;8.82;;
42978;SDS011;28616;44.746;19.678;2023-08-17T14:17:50;10.07;;;7.63;;
42978;SDS011;28616;44.746;19.678;2023-08-17T14:20:17;11.45;;;8.18;;
42978;SDS011;28616;44.746;19.678;2023-08-17T14:22:44;13.98;;;7.90;;
42978;SDS011;28616;44.746;19.678;2023-08-17T14:25:10;12.77;;;8.68;;
42978;SDS011;28616;44.746;19.678;2023-08-17T14:27:36;11.75;;;9.15;;
42978;SDS011;28616;44.746;19.678;2023-08-17T14:30:02;13.43;;;7.88;;
42978;SDS011;28616;44.746;19.678;2023-08-17T14:32:29;18.40;;;9.07;;